Time;durP1;ratioP1;P1;durP2;ratioP2;P2;SDS_P1;SDS_P2;PMS_P1;PMS_P2;Temp;Humidity;BMP_temperature;BMP_pressure;BME280_temperature;BME280_humidity;BME280_pressure;Samples;Min_cycle;Max_cycle;Signal;HPM_P1;HPM_P2
2023/06/26 00:01:20;;;;;;;;;;;;;;;19.78;100.00;94996.31;5115733;28;936;-52
2023/06/26 00:03:47;;;;;;;;;;;;;;;19.55;100.00;94986.88;5115897;28;1031;-52
2023/06/26 00:06:13;;;;;;;;;;;;;;;19.43;100.00;94991.34;5115669;28;1051;-52
2023/06/26 00:08:39;;;;;;;;;;;;;;;19.44;100.00;94990.28;5115406;28;1906;-52
2023/06/26 00:11:05;;;;;;;;;;;;;;;19.42;100.00;94985.09;5115681;28;972;-52
2023/06/26 00:13:31;;;;;;;;;;;;;;;19.53;100.00;94982.72;5115367;28;1107;-52
2023/06/26 00:15:57;;;;;;;;;;;;;;;19.68;100.00;94991.34;5115588;28;1039;-52
2023/06/26 00:18:24;;;;;;;;;;;;;;;19.57;100.00;94987.47;5115429;28;972;-52
2023/06/26 00:20:50;;;;;;;;;;;;;;;19.29;100.00;94991.44;5115453;28;1024;-52
2023/06/26 00:23:16;;;;;;;;;;;;;;;19.33;100.00;94993.72;5115064;28;1088;-52
2023/06/26 00:25:43;;;;;;;;;;;;;;;19.44;100.00;94993.81;5115144;28;1013;-52
2023/06/26 00:28:09;;;;;;;;;;;;;;;19.49;100.00;94995.88;5115026;28;1914;-52
2023/06/26 00:30:35;;;;;;;;;;;;;;;19.54;100.00;94998.78;5115080;28;1049;-52
2023/06/26 00:33:01;;;;;;;;;;;;;;;19.56;100.00;95001.25;5115287;28;1027;-52
2023/06/26 00:35:27;;;;;;;;;;;;;;;19.60;100.00;94999.78;5114903;28;1055;-52
2023/06/26 00:37:53;;;;;;;;;;;;;;;19.65;100.00;94991.78;5115164;28;976;-52
2023/06/26 00:40:19;;;;;;;;;;;;;;;19.52;100.00;94995.47;5115104;28;984;-52
2023/06/26 00:42:45;;;;;;;;;;;;;;;19.44;100.00;95001.94;5114769;28;1041;-52
2023/06/26 00:45:11;;;;;;;;;;;;;;;19.53;100.00;95005.25;5114674;28;1092;-52
2023/06/26 00:47:38;;;;;;;;;;;;;;;19.56;100.00;94991.25;5114907;28;1045;-52
2023/06/26 00:50:04;;;;;;;;;;;;;;;19.51;100.00;94994.59;5114544;28;1012;-52
2023/06/26 00:52:31;;;;;;;;;;;;;;;19.47;100.00;94992.56;5114795;28;1039;-52
2023/06/26 00:54:57;;;;;;;;;;;;;;;19.43;100.00;94989.47;5114571;28;1983;-52
2023/06/26 00:57:24;;;;;;;;;;;;;;;19.45;100.00;94990.06;5114093;28;1838;-52
2023/06/26 00:59:50;;;;;;;;;;;;;;;19.54;100.00;94987.09;5114444;28;1108;-52
2023/06/26 01:02:20;;;;;;;;;;;;;;;19.59;100.00;94990.78;5114439;27;1063;-52
2023/06/26 01:04:47;;;;;;;;;;;;;;;19.65;100.00;94989.06;5114435;28;1031;-52
2023/06/26 01:07:15;;;;;;;;;;;;;;;19.68;100.00;94985.94;5114254;28;1039;-52
2023/06/26 01:09:41;;;;;;;;;;;;;;;19.66;100.00;94988.84;5114436;28;1910;-52
2023/06/26 01:12:07;;;;;;;;;;;;;;;19.63;100.00;94981.16;5114470;28;964;-52
2023/06/26 01:14:35;;;;;;;;;;;;;;;19.45;100.00;94986.53;5114353;28;1031;-52
2023/06/26 01:17:01;;;;;;;;;;;;;;;19.28;100.00;94980.81;5114145;28;1068;-52
2023/06/26 01:19:29;;;;;;;;;;;;;;;19.03;100.00;94978.91;5113999;28;1003;-52
2023/06/26 01:22:15;;;;;;;;;;;;;;;18.93;100.00;94981.22;5113915;28;1341;-52
2023/06/26 01:25:03;;;;;;;;;;;;;;;18.88;100.00;94983.78;5113994;28;1029;-52
2023/06/26 01:27:32;;;;;;;;;;;;;;;18.98;100.00;94988.72;5114095;28;972;-52
2023/06/26 01:30:00;;;;;;;;;;;;;;;18.97;100.00;94985.19;5114018;28;1941;-52
2023/06/26 01:32:26;;;;;;;;;;;;;;;19.17;100.00;94976.94;5114149;28;1015;-52
2023/06/26 01:34:52;;;;;;;;;;;;;;;19.17;100.00;94973.41;5114059;28;1043;-52
2023/06/26 01:37:18;;;;;;;;;;;;;;;19.28;100.00;94970.81;5114143;27;1018;-52
2023/06/26 01:39:44;;;;;;;;;;;;;;;19.35;100.00;94961.78;5113896;28;1052;-52
2023/06/26 01:42:10;;;;;;;;;;;;;;;19.33;100.00;94958.47;5113894;28;1047;-52
2023/06/26 01:44:39;;;;;;;;;;;;;;;19.29;100.00;94958.94;5113817;28;1092;-52
2023/06/26 01:47:05;;;;;;;;;;;;;;;19.21;100.00;94961.88;5113843;28;1036;-52
2023/06/26 01:49:43;;;;;;;;;;;;;;;19.10;100.00;94959.88;5113788;28;1909;-52
2023/06/26 01:52:38;;;;;;;;;;;;;;;19.11;100.00;94962.38;5113751;28;1212;-52
2023/06/26 01:55:10;;;;;;;;;;;;;;;18.92;100.00;94961.44;5103933;28;2273;-52
2023/06/26 01:57:38;;;;;;;;;;;;;;;18.92;100.00;94961.44;5112387;28;2654;-52
2023/06/26 02:00:06;;;;;;;;;;;;;;;19.01;100.00;94964.75;5112415;28;1881;-52
2023/06/26 02:02:32;;;;;;;;;;;;;;;19.03;100.00;94965.34;5113736;28;971;-52
2023/06/26 02:04:58;;;;;;;;;;;;;;;19.19;100.00;94960.47;5114006;28;1028;-52
2023/06/26 02:07:24;;;;;;;;;;;;;;;19.14;100.00;94966.50;5112570;28;2868;-52
2023/06/26 02:09:50;;;;;;;;;;;;;;;19.12;100.00;94971.31;5112335;28;2906;-52
2023/06/26 02:12:16;;;;;;;;;;;;;;;19.06;100.00;94973.03;5117657;28;972;-52
2023/06/26 02:14:42;;;;;;;;;;;;;;;19.05;100.00;94967.84;5118023;28;1032;-52
2023/06/26 02:17:08;;;;;;;;;;;;;;;19.10;100.00;94966.16;5117961;28;964;-52
2023/06/26 02:19:34;;;;;;;;;;;;;;;19.10;100.00;94965.28;5117520;28;1862;-52
2023/06/26 02:22:01;;;;;;;;;;;;;;;19.10;100.00;94966.16;5117577;28;1039;-52
2023/06/26 02:24:29;;;;;;;;;;;;;;;19.15;100.00;94964.66;5117519;28;977;-52
2023/06/26 02:26:57;;;;;;;;;;;;;;;19.16;100.00;94977.13;5117479;28;976;-52
2023/06/26 02:29:23;;;;;;;;;;;;;;;19.17;100.00;94963.38;5117542;28;1914;-52
2023/06/26 02:31:49;;;;;;;;;;;;;;;19.26;100.00;94963.97;5117280;28;1052;-52
2023/06/26 02:34:15;;;;;;;;;;;;;;;19.26;100.00;94956.66;5117343;28;964;-52
2023/06/26 02:36:41;;;;;;;;;;;;;;;19.36;100.00;94958.03;5117467;28;1039;-52
2023/06/26 02:39:07;;;;;;;;;;;;;;;19.26;100.00;94958.53;5117189;28;1127;-52
2023/06/26 02:41:33;;;;;;;;;;;;;;;19.25;100.00;94952.25;5117310;28;1047;-52
2023/06/26 02:43:59;;;;;;;;;;;;;;;19.10;100.00;94957.16;5117309;28;1036;-52
2023/06/26 02:46:25;;;;;;;;;;;;;;;18.91;100.00;94954.41;5117090;28;1069;-52
2023/06/26 02:48:51;;;;;;;;;;;;;;;18.98;100.00;94953.50;5117105;28;1960;-52
2023/06/26 02:51:17;;;;;;;;;;;;;;;18.93;100.00;94954.16;5117117;28;1058;-52
2023/06/26 02:53:43;;;;;;;;;;;;;;;18.83;100.00;94942.97;5117229;28;973;-52
2023/06/26 02:56:09;;;;;;;;;;;;;;;18.66;100.00;94948.84;5117021;28;1818;-52
2023/06/26 02:58:35;;;;;;;;;;;;;;;18.57;100.00;94944.72;5116857;27;1084;-52
2023/06/26 03:01:01;;;;;;;;;;;;;;;18.57;100.00;94957.44;5116795;28;1123;-52
2023/06/26 03:03:28;;;;;;;;;;;;;;;18.47;100.00;94960.63;5116793;28;984;-52
2023/06/26 03:05:54;;;;;;;;;;;;;;;18.48;100.00;94962.28;5116694;28;1096;-52
2023/06/26 03:08:20;;;;;;;;;;;;;;;18.57;100.00;94963.69;5116456;28;1930;-52
2023/06/26 03:10:46;;;;;;;;;;;;;;;18.68;100.00;94956.75;5109081;28;2937;-52
2023/06/26 03:13:12;;;;;;;;;;;;;;;18.60;100.00;94955.13;5112857;28;2845;-52
2023/06/26 03:15:38;;;;;;;;;;;;;;;18.44;100.00;94959.19;5116717;27;1027;-52
2023/06/26 03:18:04;;;;;;;;;;;;;;;18.43;100.00;94960.22;5116472;28;1091;-52
2023/06/26 03:20:30;;;;;;;;;;;;;;;18.60;100.00;94965.16;5116014;27;1169;-52
2023/06/26 03:22:56;;;;;;;;;;;;;;;18.58;100.00;94967.25;5116648;28;980;-51
2023/06/26 03:25:22;;;;;;;;;;;;;;;18.54;100.00;94967.66;5116108;28;1031;-52
2023/06/26 03:27:48;;;;;;;;;;;;;;;18.39;100.00;94969.00;5115227;28;1914;-52
2023/06/26 03:30:15;;;;;;;;;;;;;;;18.26;100.00;94977.97;5116040;28;1111;-52
2023/06/26 03:32:41;;;;;;;;;;;;;;;18.37;100.00;94971.06;5115704;28;930;-52
2023/06/26 03:35:09;;;;;;;;;;;;;;;18.56;100.00;94977.47;5116120;27;908;-52
2023/06/26 03:37:35;;;;;;;;;;;;;;;18.70;100.00;94977.19;5116109;28;1011;-51
2023/06/26 03:40:01;;;;;;;;;;;;;;;18.81;100.00;94981.09;5113768;28;2768;-52
2023/06/26 03:42:27;;;;;;;;;;;;;;;18.89;100.00;94975.44;5116180;28;1004;-52
2023/06/26 03:44:53;;;;;;;;;;;;;;;18.92;100.00;94983.13;5116075;27;948;-52
2023/06/26 03:47:19;;;;;;;;;;;;;;;18.91;100.00;94980.63;5115933;28;1024;-51
2023/06/26 03:49:45;;;;;;;;;;;;;;;18.92;100.00;94983.13;5115849;28;1910;-51
2023/06/26 03:52:11;;;;;;;;;;;;;;;18.82;100.00;94980.06;5115706;28;1138;-52
2023/06/26 03:54:37;;;;;;;;;;;;;;;18.72;100.00;94977.81;5115864;28;1239;-52
2023/06/26 03:57:03;;;;;;;;;;;;;;;18.88;100.00;94981.06;5105106;28;3027;-52
2023/06/26 03:59:29;;;;;;;;;;;;;;;19.02;100.00;94981.81;5115340;28;1072;-52
2023/06/26 04:01:56;;;;;;;;;;;;;;;19.18;100.00;94983.16;5115780;27;1035;-52
2023/06/26 04:04:22;;;;;;;;;;;;;;;19.36;100.00;94980.53;5115773;28;1004;-52
2023/06/26 04:06:48;;;;;;;;;;;;;;;19.52;100.00;94984.63;5115424;28;1037;-52
2023/06/26 04:09:14;;;;;;;;;;;;;;;19.65;100.00;94980.94;5115476;28;1997;-52
2023/06/26 04:11:40;;;;;;;;;;;;;;;19.47;100.00;94985.25;5115226;28;1088;-52
2023/06/26 04:14:06;;;;;;;;;;;;;;;19.37;100.00;94998.50;5115452;28;1112;-52
2023/06/26 04:16:32;;;;;;;;;;;;;;;19.52;100.00;94987.31;5115263;28;1027;-53
2023/06/26 04:18:58;;;;;;;;;;;;;;;19.62;100.00;94990.34;5114702;28;2338;-52
2023/06/26 04:21:24;;;;;;;;;;;;;;;19.72;100.00;94989.03;5104175;28;2789;-52
2023/06/26 04:23:51;;;;;;;;;;;;;;;19.83;100.00;94991.88;5114046;28;2281;-52
2023/06/26 04:26:17;;;;;;;;;;;;;;;20.05;100.00;94986.03;5114567;28;2890;-52
2023/06/26 04:28:43;;;;;;;;;;;;;;;20.19;100.00;94989.44;5115264;28;1910;-52
2023/06/26 04:31:09;;;;;;;;;;;;;;;20.23;100.00;94996.91;5114255;28;2907;-51
2023/06/26 04:33:38;;;;;;;;;;;;;;;20.23;100.00;94991.47;5094264;28;2922;-52
2023/06/26 04:36:05;;;;;;;;;;;;;;;20.29;100.00;94989.75;5093447;28;1072;-52
2023/06/26 04:38:34;;;;;;;;;;;;;;;20.24;100.00;94987.72;5094408;28;1019;-52
2023/06/26 04:41:01;;;;;;;;;;;;;;;20.18;100.00;94995.91;5094721;28;996;-52
2023/06/26 04:43:27;;;;;;;;;;;;;;;20.41;100.00;94993.38;5094311;28;1049;-51
2023/06/26 04:45:53;;;;;;;;;;;;;;;20.75;100.00;94995.72;5095832;28;2258;-51
2023/06/26 04:48:19;;;;;;;;;;;;;;;21.11;100.00;94997.53;5101190;28;2906;-51
2023/06/26 04:50:53;;;;;;;;;;;;;;;21.30;97.95;95003.75;5094350;28;1055;-52
2023/06/26 04:53:20;;;;;;;;;;;;;;;21.34;96.68;94995.94;5094276;28;1871;-52
2023/06/26 04:55:46;;;;;;;;;;;;;;;21.23;97.26;95003.84;5107576;28;2599;-52
2023/06/26 04:58:13;;;;;;;;;;;;;;;21.06;100.00;95000.94;5114179;28;1537;-52
2023/06/26 05:00:42;;;;;;;;;;;;;;;21.18;98.33;95002.88;5114558;28;1914;-52
2023/06/26 05:03:09;;;;;;;;;;;;;;;21.29;95.60;94999.38;5114372;28;1131;-52
2023/06/26 05:05:35;;;;;;;;;;;;;;;21.34;95.17;94998.66;5114290;28;1036;-52
2023/06/26 05:08:13;;;;;;;;;;;;;;;21.33;94.89;94999.75;5114645;28;1909;-52
2023/06/26 05:10:39;;;;;;;;;;;;;;;21.63;94.36;94995.13;5114575;28;1043;-52
2023/06/26 05:13:05;;;;;;;;;;;;;;;22.06;92.38;95000.47;5113364;28;1050;-52
2023/06/26 05:15:31;;;;;;;;;;;;;;;22.32;90.15;95013.63;5114110;28;967;-52
2023/06/26 05:17:57;;;;;;;;;;;;;;;22.56;90.02;95003.56;5114169;28;979;-52
2023/06/26 05:20:23;;;;;;;;;;;;;;;22.60;86.55;95009.34;5114057;28;1028;-52
2023/06/26 05:22:49;;;;;;;;;;;;;;;22.53;87.57;94998.56;5114362;28;1007;-52
2023/06/26 05:25:16;;;;;;;;;;;;;;;22.73;88.55;95013.72;5113985;28;1154;-52
2023/06/26 05:27:42;;;;;;;;;;;;;;;22.67;88.03;95010.06;5114015;28;1100;-52
2023/06/26 05:30:09;;;;;;;;;;;;;;;22.38;92.07;95025.47;5113909;28;1906;-52
2023/06/26 05:32:38;;;;;;;;;;;;;;;21.94;97.06;95020.34;5114219;28;980;-52
2023/06/26 05:35:04;;;;;;;;;;;;;;;21.61;100.00;95021.72;5113864;28;1035;-52
2023/06/26 05:37:31;;;;;;;;;;;;;;;21.58;100.00;95018.63;5113823;28;1061;-52
2023/06/26 05:39:57;;;;;;;;;;;;;;;21.48;100.00;95019.22;5113726;28;1037;-52
2023/06/26 05:42:23;;;;;;;;;;;;;;;21.33;100.00;95019.59;5113786;28;1025;-53
2023/06/26 05:44:49;;;;;;;;;;;;;;;21.22;100.00;95023.13;5113785;28;1074;-52
2023/06/26 05:47:15;;;;;;;;;;;;;;;21.64;100.00;95029.44;5113611;28;1025;-52
2023/06/26 05:49:41;;;;;;;;;;;;;;;21.93;100.00;95018.72;5113607;28;1930;-52
2023/06/26 05:52:08;;;;;;;;;;;;;;;21.80;100.00;95017.03;5113666;28;1088;-52
2023/06/26 05:54:34;;;;;;;;;;;;;;;21.82;97.46;95019.53;5113671;28;965;-52
2023/06/26 05:57:00;;;;;;;;;;;;;;;21.89;99.00;95019.41;5113560;28;1772;-52
2023/06/26 05:59:27;;;;;;;;;;;;;;;22.04;98.08;95025.19;5113437;28;1310;-52
2023/06/26 06:01:53;;;;;;;;;;;;;;;22.01;97.81;95023.78;5113637;28;1123;-52
2023/06/26 06:04:19;;;;;;;;;;;;;;;22.11;98.19;95030.56;5113740;28;972;-52
2023/06/26 06:06:45;;;;;;;;;;;;;;;22.41;96.30;95023.09;5113790;28;977;-52
2023/06/26 06:09:11;;;;;;;;;;;;;;;22.82;94.29;95025.88;5112453;28;1996;-52
2023/06/26 06:11:37;;;;;;;;;;;;;;;23.14;92.50;95025.47;5113468;28;1578;-52
2023/06/26 06:14:04;;;;;;;;;;;;;;;23.05;91.62;95016.00;5113523;28;1052;-52
2023/06/26 06:16:30;;;;;;;;;;;;;;;23.22;92.51;95022.38;5113715;28;1023;-52
2023/06/26 06:18:56;;;;;;;;;;;;;;;23.38;90.34;95021.56;5113381;28;1030;-51
2023/06/26 06:21:22;;;;;;;;;;;;;;;23.39;88.98;95023.22;5113662;28;956;-52
2023/06/26 06:23:48;;;;;;;;;;;;;;;23.21;89.70;95023.41;5112327;28;2167;-52
2023/06/26 06:26:14;;;;;;;;;;;;;;;23.12;87.46;95013.97;5097441;28;2808;-52
2023/06/26 06:28:40;;;;;;;;;;;;;;;23.14;88.44;95020.81;5092963;28;1910;-52
2023/06/26 06:31:06;;;;;;;;;;;;;;;23.11;84.13;95015.88;5093114;28;1046;-52
2023/06/26 06:33:32;;;;;;;;;;;;;;;23.49;83.88;95010.84;5092900;28;1068;-51
2023/06/26 06:35:59;;;;;;;;;;;;;;;24.02;82.08;95016.94;5092945;28;1053;-51
2023/06/26 06:38:25;;;;;;;;;;;;;;;24.39;79.10;95011.78;5101991;28;2502;-51
2023/06/26 06:40:51;;;;;;;;;;;;;;;24.72;73.56;95004.63;5093059;28;1005;-52
2023/06/26 06:43:17;;;;;;;;;;;;;;;24.91;72.31;94999.66;5092979;28;1051;-51
2023/06/26 06:45:43;;;;;;;;;;;;;;;25.04;72.29;95007.47;5093004;28;1043;-52
2023/06/26 06:48:09;;;;;;;;;;;;;;;24.89;72.06;95008.13;5097095;28;2519;-52
2023/06/26 06:50:35;;;;;;;;;;;;;;;24.86;71.48;95016.00;5095609;28;2828;-52
2023/06/26 06:53:01;;;;;;;;;;;;;;;24.63;71.40;95014.34;5092886;28;1099;-52
2023/06/26 06:55:28;;;;;;;;;;;;;;;24.39;75.28;95009.03;5110157;28;1206;-52
2023/06/26 06:57:54;;;;;;;;;;;;;;;24.73;73.30;95009.00;5116729;28;1550;-53
2023/06/26 07:00:20;;;;;;;;;;;;;;;25.14;76.71;95006.78;5116839;28;1513;-52
2023/06/26 07:02:47;;;;;;;;;;;;;;;25.26;70.82;95012.13;5116581;28;1036;-53
2023/06/26 07:05:13;;;;;;;;;;;;;;;25.03;69.19;95008.53;5114721;28;2620;-52
2023/06/26 07:07:39;;;;;;;;;;;;;;;24.57;73.74;95002.50;5096520;28;991;-52
2023/06/26 07:10:07;;;;;;;;;;;;;;;24.25;72.75;95011.31;5096535;28;1971;-53
2023/06/26 07:12:34;;;;;;;;;;;;;;;24.16;72.09;95007.34;5096361;28;983;-52
2023/06/26 07:15:00;;;;;;;;;;;;;;;24.29;72.51;94997.97;5096354;28;1215;-52
2023/06/26 07:17:26;;;;;;;;;;;;;;;24.71;70.75;95001.03;5104616;28;2523;-52
2023/06/26 07:19:52;;;;;;;;;;;;;;;24.54;72.10;95003.00;5115529;28;2840;-53
2023/06/26 07:22:21;;;;;;;;;;;;;;;24.91;68.91;94996.94;5116356;28;1031;-52
2023/06/26 07:24:47;;;;;;;;;;;;;;;25.02;68.65;94995.94;5116290;28;1092;-53
2023/06/26 07:27:14;;;;;;;;;;;;;;;25.39;71.70;95000.78;5115575;28;979;-53
2023/06/26 07:29:40;;;;;;;;;;;;;;;25.53;66.80;94998.44;5116441;27;1902;-53
2023/06/26 07:32:06;;;;;;;;;;;;;;;25.67;70.43;94990.66;5115975;28;1025;-53
2023/06/26 07:34:32;;;;;;;;;;;;;;;25.55;67.20;94992.72;5115236;28;2931;-53
2023/06/26 07:36:58;;;;;;;;;;;;;;;24.99;66.58;94999.19;5114770;28;2947;-53
2023/06/26 07:39:24;;;;;;;;;;;;;;;24.61;71.04;94991.91;5115884;28;1041;-53
2023/06/26 07:41:51;;;;;;;;;;;;;;;24.39;70.19;94994.56;5115894;28;1064;-53
2023/06/26 07:44:17;;;;;;;;;;;;;;;24.30;70.21;94999.63;5115872;27;1031;-53
2023/06/26 07:46:44;;;;;;;;;;;;;;;24.22;71.73;94997.31;5108492;28;2431;-53
2023/06/26 07:49:11;;;;;;;;;;;;;;;24.28;73.90;94993.56;5095220;28;1906;-53
2023/06/26 07:51:37;;;;;;;;;;;;;;;24.30;73.31;94995.00;5095285;28;1208;-53
2023/06/26 07:54:03;;;;;;;;;;;;;;;24.40;71.70;94997.03;5095562;28;1054;-53
2023/06/26 07:56:29;;;;;;;;;;;;;;;24.79;72.89;94991.56;5100340;28;1509;-53
2023/06/26 07:58:57;;;;;;;;;;;;;;;24.72;71.03;94999.16;5115483;28;1095;-53
2023/06/26 08:01:24;;;;;;;;;;;;;;;24.73;70.13;95001.59;5115258;27;1048;-53
2023/06/26 08:03:50;;;;;;;;;;;;;;;24.46;74.46;95008.88;5115731;28;975;-52
2023/06/26 08:06:16;;;;;;;;;;;;;;;24.29;76.48;95007.00;5115556;28;1043;-53
2023/06/26 08:08:42;;;;;;;;;;;;;;;24.24;76.96;95006.91;5115587;28;1902;-53
2023/06/26 08:11:08;;;;;;;;;;;;;;;24.12;78.84;95007.00;5105632;28;2806;-53
2023/06/26 08:13:34;;;;;;;;;;;;;;;24.02;78.73;95001.41;5113188;28;2857;-52
2023/06/26 08:16:00;;;;;;;;;;;;;;;24.15;78.68;95003.78;5113967;28;1053;-53
2023/06/26 08:18:26;;;;;;;;;;;;;;;24.45;77.79;95004.47;5115071;28;1107;-53
2023/06/26 08:20:52;;;;;;;;;;;;;;;24.90;76.34;95000.72;5114092;28;1344;-53
2023/06/26 08:23:18;;;;;;;;;;;;;;;25.18;74.92;94999.69;5115018;27;1088;-53
2023/06/26 08:25:46;;;;;;;;;;;;;;;25.54;74.59;94993.81;5108287;28;2721;-53
2023/06/26 08:28:12;;;;;;;;;;;;;;;25.76;72.15;94997.28;5094185;28;1902;-53
2023/06/26 08:30:39;;;;;;;;;;;;;;;25.55;73.02;95007.22;5094471;28;1043;-53
2023/06/26 08:33:10;;;;;;;;;;;;;;;25.57;72.08;94999.56;5094337;28;1229;-53
2023/06/26 08:35:36;;;;;;;;;;;;;;;25.33;70.47;95010.84;5094787;28;1035;-53
2023/06/26 08:38:02;;;;;;;;;;;;;;;25.64;66.33;95013.88;5094725;28;1019;-52
2023/06/26 08:40:29;;;;;;;;;;;;;;;25.68;65.34;94997.75;5094389;28;1055;-53
2023/06/26 08:42:55;;;;;;;;;;;;;;;25.26;70.72;95002.00;5094624;28;972;-53
2023/06/26 08:45:21;;;;;;;;;;;;;;;25.26;73.63;94993.78;5094192;28;975;-53
2023/06/26 08:47:51;;;;;;;;;;;;;;;25.63;68.07;94997.69;5094166;28;1029;-53
2023/06/26 08:50:19;;;;;;;;;;;;;;;26.09;66.38;94988.00;5094380;28;1914;-53
2023/06/26 08:52:54;;;;;;;;;;;;;;;25.87;70.18;94990.78;5094141;28;1040;-53
2023/06/26 08:55:24;;;;;;;;;;;;;;;25.51;66.73;95004.16;5103855;28;2522;-52
2023/06/26 08:57:51;;;;;;;;;;;;;;;25.07;66.91;95009.69;5113765;28;1406;-53
2023/06/26 09:00:17;;;;;;;;;;;;;;;24.75;68.31;95009.56;5114271;28;1061;-53
2023/06/26 09:02:44;;;;;;;;;;;;;;;24.60;70.88;95001.97;5114508;28;1047;-52
2023/06/26 09:05:11;;;;;;;;;;;;;;;24.42;69.22;94999.53;5114307;28;1059;-53
2023/06/26 09:07:37;;;;;;;;;;;;;;;24.35;69.00;95008.72;5114314;28;965;-53
2023/06/26 09:10:03;;;;;;;;;;;;;;;24.35;68.49;95008.72;5114122;28;1910;-53
2023/06/26 09:12:29;;;;;;;;;;;;;;;24.30;68.53;94999.63;5114048;28;992;-53
2023/06/26 09:14:55;;;;;;;;;;;;;;;24.65;67.08;94995.78;5114417;28;1136;-53
2023/06/26 09:17:26;;;;;;;;;;;;;;;25.35;67.11;94990.59;5114002;28;1057;-53
2023/06/26 09:19:52;;;;;;;;;;;;;;;25.74;63.11;94991.22;5104779;28;2560;-53
2023/06/26 09:22:18;;;;;;;;;;;;;;;26.08;65.84;94982.78;5093451;28;1020;-53
2023/06/26 09:24:45;;;;;;;;;;;;;;;26.32;61.44;94990.63;5093551;28;924;-53
2023/06/26 09:27:11;;;;;;;;;;;;;;;26.54;62.25;94985.84;5093798;28;1065;-52
2023/06/26 09:29:37;;;;;;;;;;;;;;;26.91;63.91;94976.72;5093441;28;1993;-53
2023/06/26 09:32:03;;;;;;;;;;;;;;;27.14;61.88;94980.91;5093992;28;996;-53
2023/06/26 09:34:33;;;;;;;;;;;;;;;27.11;57.00;94969.63;5093642;28;1082;-53
2023/06/26 09:37:02;;;;;;;;;;;;;;;27.12;62.82;94977.59;5092286;28;1053;-53
2023/06/26 09:39:30;;;;;;;;;;;;;;;27.10;57.73;94981.72;5105775;28;2425;-53
2023/06/26 09:41:57;;;;;;;;;;;;;;;27.19;60.82;94983.66;5092979;28;2901;-53
2023/06/26 09:44:23;;;;;;;;;;;;;;;26.94;60.06;94987.16;5093377;28;2488;-53
2023/06/26 09:46:49;;;;;;;;;;;;;;;26.26;60.05;94984.28;5104739;28;2879;-53
2023/06/26 09:49:15;;;;;;;;;;;;;;;25.82;63.80;94981.72;5093076;28;1913;-53
2023/06/26 09:51:42;;;;;;;;;;;;;;;25.60;63.56;94984.56;5093264;28;1041;-53
2023/06/26 09:54:09;;;;;;;;;;;;;;;25.46;61.63;94984.97;5093203;28;1084;-53
2023/06/26 09:56:35;;;;;;;;;;;;;;;25.47;62.35;94986.59;5099128;28;1531;-53
2023/06/26 09:59:03;;;;;;;;;;;;;;;25.45;61.17;94983.31;5110939;28;2688;-53
2023/06/26 10:01:29;;;;;;;;;;;;;;;25.46;62.18;94987.72;5113515;28;1051;-53
2023/06/26 10:03:57;;;;;;;;;;;;;;;25.47;63.92;94983.88;5111119;28;2572;-53
2023/06/26 10:06:29;;;;;;;;;;;;;;;25.58;62.51;94993.03;5112113;28;1036;-53
2023/06/26 10:08:56;;;;;;;;;;;;;;;25.46;61.80;94987.72;5113362;28;1964;-53
2023/06/26 10:11:25;;;;;;;;;;;;;;;25.46;62.12;94981.38;5113325;28;1069;-53
2023/06/26 10:13:54;;;;;;;;;;;;;;;25.46;62.64;94982.25;5113603;28;1072;-53
2023/06/26 10:16:25;;;;;;;;;;;;;;;25.45;65.42;94980.56;5113268;28;1101;-53
2023/06/26 10:18:53;;;;;;;;;;;;;;;25.49;64.40;94984.44;5113567;28;980;-53
2023/06/26 10:21:21;;;;;;;;;;;;;;;25.54;62.46;94980.94;5113185;28;1035;-53
2023/06/26 10:23:48;;;;;;;;;;;;;;;25.56;62.88;94972.47;5113636;28;1043;-53
2023/06/26 10:26:14;;;;;;;;;;;;;;;25.47;60.38;94972.94;5113537;28;1051;-53
2023/06/26 10:28:42;;;;;;;;;;;;;;;25.46;61.15;94974.03;5113517;28;1902;-53
2023/06/26 10:31:09;;;;;;;;;;;;;;;26.06;62.21;94965.78;5113384;28;1056;-53
2023/06/26 10:33:36;;;;;;;;;;;;;;;26.55;60.66;94973.75;5101272;27;2518;-53
2023/06/26 10:36:18;;;;;;;;;;;;;;;26.82;54.65;94967.34;5096649;28;1004;-53
2023/06/26 10:38:51;;;;;;;;;;;;;;;26.92;57.40;94966.56;5097073;28;1038;-53
2023/06/26 10:41:22;;;;;;;;;;;;;;;26.86;56.71;94957.47;5096984;28;960;-54
2023/06/26 10:43:49;;;;;;;;;;;;;;;26.87;54.74;94962.69;5097031;28;961;-54
2023/06/26 10:46:15;;;;;;;;;;;;;;;26.91;55.60;94960.25;5095831;28;1023;-53
2023/06/26 10:48:58;;;;;;;;;;;;;;;27.07;54.46;94961.13;5096875;28;1986;-54
2023/06/26 10:51:25;;;;;;;;;;;;;;;27.19;54.48;94955.41;5096880;28;1074;-54
2023/06/26 10:53:57;;;;;;;;;;;;;;;27.28;54.78;94959.31;5096637;28;1029;-54
2023/06/26 10:56:42;;;;;;;;;;;;;;;27.23;55.66;94956.50;5100720;28;1814;-53
2023/06/26 10:59:18;;;;;;;;;;;;;;;27.29;54.39;94951.88;5116885;28;1237;-54
2023/06/26 11:01:46;;;;;;;;;;;;;;;27.34;52.51;94957.38;5117029;28;975;-53
2023/06/26 11:04:14;;;;;;;;;;;;;;;27.25;51.90;94952.41;5116972;28;1035;-54
2023/06/26 11:06:41;;;;;;;;;;;;;;;27.43;51.71;94948.34;5116864;28;1024;-54
2023/06/26 11:09:08;;;;;;;;;;;;;;;27.37;52.18;94951.34;5114475;28;2462;-54
2023/06/26 11:11:58;;;;;;;;;;;;;;;27.20;53.51;94951.56;5116871;28;1051;-54
2023/06/26 11:14:25;;;;;;;;;;;;;;;26.91;52.61;94952.03;5116578;28;1061;-54
2023/06/26 11:16:51;;;;;;;;;;;;;;;26.82;50.99;94946.22;5116884;28;1044;-54
2023/06/26 11:19:18;;;;;;;;;;;;;;;26.74;51.44;94941.25;5116472;28;1040;-53
2023/06/26 11:21:44;;;;;;;;;;;;;;;26.93;51.64;94940.78;5115829;28;3238;-53
2023/06/26 11:24:11;;;;;;;;;;;;;;;27.10;51.64;94944.13;5096224;28;2967;-53
2023/06/26 11:26:38;;;;;;;;;;;;;;;26.99;51.19;94940.50;5096282;28;963;-53
2023/06/26 11:29:04;;;;;;;;;;;;;;;27.21;52.13;94942.25;5095816;28;1910;-54
2023/06/26 11:31:31;;;;;;;;;;;;;;;27.13;50.05;94935.38;5097283;28;2524;-53
2023/06/26 11:33:59;;;;;;;;;;;;;;;27.10;49.18;94937.81;5098812;28;2903;-53
2023/06/26 11:36:26;;;;;;;;;;;;;;;27.20;47.71;94937.84;5095719;28;1084;-53
2023/06/26 11:38:53;;;;;;;;;;;;;;;27.33;49.19;94940.09;5095920;28;1036;-53
2023/06/26 11:41:19;;;;;;;;;;;;;;;27.40;47.76;94932.41;5095531;28;1032;-53
2023/06/26 11:43:45;;;;;;;;;;;;;;;27.43;48.82;94929.13;5095669;28;1869;-53
2023/06/26 11:46:11;;;;;;;;;;;;;;;27.53;50.65;94924.75;5095500;28;1036;-53
2023/06/26 11:48:38;;;;;;;;;;;;;;;27.49;48.02;94927.22;5095529;28;1914;-53
2023/06/26 11:51:05;;;;;;;;;;;;;;;27.48;47.07;94938.47;5095434;28;1067;-52
2023/06/26 11:53:31;;;;;;;;;;;;;;;27.60;47.76;94936.28;5095331;28;1040;-53
2023/06/26 11:55:57;;;;;;;;;;;;;;;27.60;46.99;94939.88;5096227;28;1526;-53
2023/06/26 11:58:23;;;;;;;;;;;;;;;27.44;49.92;94933.50;5115441;28;1404;-53
2023/06/26 12:00:49;;;;;;;;;;;;;;;27.32;46.86;94940.34;5115451;28;1053;-53
2023/06/26 12:03:16;;;;;;;;;;;;;;;27.14;48.69;94931.50;5115473;28;1108;-53
2023/06/26 12:05:45;;;;;;;;;;;;;;;27.39;48.97;94932.69;5115648;28;997;-54
2023/06/26 12:08:11;;;;;;;;;;;;;;;27.55;50.14;94936.28;5115677;28;1997;-53
2023/06/26 12:10:38;;;;;;;;;;;;;;;27.69;48.11;94931.88;5115498;28;1037;-53
2023/06/26 12:13:04;;;;;;;;;;;;;;;27.59;50.22;94929.16;5108491;28;2515;-53
2023/06/26 12:15:30;;;;;;;;;;;;;;;27.48;49.49;94936.53;5094941;28;1123;-53
2023/06/26 12:17:56;;;;;;;;;;;;;;;27.33;48.38;94931.03;5095125;28;1306;-54
2023/06/26 12:20:25;;;;;;;;;;;;;;;27.25;47.97;94919.50;5093623;28;1116;-53
2023/06/26 12:22:51;;;;;;;;;;;;;;;27.36;46.86;94925.81;5094811;28;993;-52
2023/06/26 12:25:24;;;;;;;;;;;;;;;27.62;48.34;94923.09;5093727;28;1043;-52
2023/06/26 12:27:50;;;;;;;;;;;;;;;27.73;48.54;94929.41;5094636;28;1165;-52
2023/06/26 12:30:16;;;;;;;;;;;;;;;27.64;45.93;94940.13;5094632;28;1910;-53
2023/06/26 12:32:48;;;;;;;;;;;;;;;27.59;46.19;94926.41;5094818;28;1039;-52
2023/06/26 12:35:15;;;;;;;;;;;;;;;27.51;46.35;94924.19;5094820;28;931;-52
2023/06/26 12:37:43;;;;;;;;;;;;;;;27.60;45.86;94919.78;5094803;28;1054;-52
2023/06/26 12:40:19;;;;;;;;;;;;;;;27.56;45.78;94926.94;5110867;28;2582;-53
2023/06/26 12:42:45;;;;;;;;;;;;;;;27.63;47.05;94916.50;5115173;28;1044;-56
2023/06/26 12:45:12;;;;;;;;;;;;;;;27.62;45.92;94923.09;5114807;28;1035;-55
2023/06/26 12:47:40;;;;;;;;;;;;;;;27.68;45.66;94922.00;5114783;28;932;-56
2023/06/26 12:50:07;;;;;;;;;;;;;;;27.64;45.51;94927.22;5114563;28;1983;-52
2023/06/26 12:52:33;;;;;;;;;;;;;;;27.67;45.64;94919.53;5114574;28;1052;-52
2023/06/26 12:54:59;;;;;;;;;;;;;;;27.62;45.68;94914.84;5114156;27;960;-52